Time;durP1;ratioP1;P1;durP2;ratioP2;P2;SDS_P1;SDS_P2;PMS_P1;PMS_P2;Temp;Humidity;BMP_temperature;BMP_pressure;BME280_temperature;BME280_humidity;BME280_pressure;Samples;Min_cycle;Max_cycle;Signal;HPM_P1;HPM_P2
2022/11/21 00:00:13;;;;;;;34.78;17.85;;;5.10;99.90;;;;;;5021475;28;20460;-71
2022/11/21 00:02:38;;;;;;;31.80;17.30;;;5.00;99.90;;;;;;5025904;28;20043;-70
2022/11/21 00:05:04;;;;;;;31.55;16.95;;;5.00;99.90;;;;;;5028738;28;20108;-72
2022/11/21 00:07:32;;;;;;;33.95;17.00;;;5.10;99.90;;;;;;5023797;28;20025;-78
2022/11/21 00:09:58;;;;;;;30.33;16.58;;;5.10;99.90;;;;;;5026321;28;20443;-76
2022/11/21 00:12:23;;;;;;;32.58;16.95;;;5.10;99.90;;;;;;5029251;28;20028;-71
2022/11/21 00:14:54;;;;;;;33.35;17.83;;;5.10;99.90;;;;;;5032141;28;20029;-70
2022/11/21 00:17:19;;;;;;;30.10;16.55;;;5.10;99.90;;;;;;5023415;28;20399;-70
2022/11/21 00:19:47;;;;;;;32.15;16.50;;;5.00;99.90;;;;;;5022625;28;20021;-73
2022/11/21 00:22:13;;;;;;;33.00;16.63;;;5.10;99.90;;;;;;5023265;28;20040;-72
2022/11/21 00:24:39;;;;;;;28.90;16.38;;;5.10;99.90;;;;;;5024643;28;20033;-73
2022/11/21 00:27:04;;;;;;;29.00;16.05;;;5.00;99.90;;;;;;5031920;28;20041;-71
2022/11/21 00:29:30;;;;;;;31.17;15.82;;;5.10;99.90;;;;;;5022204;28;20022;-72
2022/11/21 00:31:58;;;;;;;25.50;15.00;;;5.10;99.90;;;;;;5021305;28;20029;-73
2022/11/21 00:34:26;;;;;;;27.85;15.07;;;5.10;99.90;;;;;;5023026;28;20079;-72
2022/11/21 00:36:51;;;;;;;31.05;16.15;;;5.10;99.90;;;;;;5024302;28;20087;-73
2022/11/21 00:39:17;;;;;;;27.83;14.23;;;5.10;99.90;;;;;;5021795;28;20521;-73
2022/11/21 00:41:42;;;;;;;26.65;14.35;;;5.10;99.90;;;;;;5019518;28;20632;-71
2022/11/21 00:44:08;;;;;;;23.50;14.20;;;5.00;99.90;;;;;;5021832;28;20096;-71
2022/11/21 00:46:36;;;;;;;29.67;15.55;;;4.90;99.90;;;;;;5021058;28;20620;-72
2022/11/21 00:49:04;;;;;;;24.95;14.00;;;4.90;99.90;;;;;;5020877;28;20045;-71
2022/11/21 00:51:32;;;;;;;24.13;13.40;;;4.90;99.90;;;;;;5020895;28;20042;-71
2022/11/21 00:53:58;;;;;;;24.40;14.43;;;4.80;99.90;;;;;;5018060;28;20359;-72
2022/11/21 00:56:26;;;;;;;26.92;14.70;;;4.80;99.90;;;;;;5019783;28;20056;-71
2022/11/21 00:58:52;;;;;;;26.90;15.52;;;4.80;99.90;;;;;;5035838;28;20029;-72
2022/11/21 01:01:18;;;;;;;29.20;15.20;;;4.90;99.90;;;;;;5022196;28;20035;-72
2022/11/21 01:03:45;;;;;;;25.60;14.52;;;4.90;99.90;;;;;;5019929;28;20109;-72
2022/11/21 01:06:17;;;;;;;27.88;15.50;;;5.00;99.90;;;;;;5021349;28;20088;-73
2022/11/21 01:08:43;;;;;;;26.70;14.93;;;4.90;99.90;;;;;;5021790;28;20091;-72
2022/11/21 01:11:17;;;;;;;27.50;14.68;;;4.80;99.90;;;;;;5015362;28;20038;-71
2022/11/21 01:13:46;;;;;;;27.88;14.40;;;4.70;99.90;;;;;;5019458;28;20756;-72
2022/11/21 01:16:18;;;;;;;22.65;13.68;;;4.70;99.90;;;;;;5021156;28;20196;-72
2022/11/21 01:18:44;;;;;;;34.47;15.63;;;4.70;99.90;;;;;;5021175;28;20038;-72
2022/11/21 01:21:17;;;;;;;26.40;14.93;;;4.70;99.90;;;;;;5024238;28;20033;-72
2022/11/21 01:23:43;;;;;;;;;;;4.70;99.90;;;;;;5019322;28;20350;-72
2022/11/21 01:26:13;;;;;;;27.13;14.70;;;4.70;99.90;;;;;;5017477;28;19917;-72
2022/11/21 01:28:39;;;;;;;26.25;14.68;;;4.70;99.90;;;;;;5023538;28;20117;-71
2022/11/21 01:31:07;;;;;;;26.85;15.20;;;4.80;99.90;;;;;;5020413;28;20101;-73
2022/11/21 01:33:39;;;;;;;27.15;14.95;;;4.80;99.90;;;;;;5026721;28;20119;-73
2022/11/21 01:36:19;;;;;;;25.60;14.57;;;4.90;99.90;;;;;;5020566;28;20041;-78
2022/11/21 01:38:50;;;;;;;28.67;14.40;;;4.90;99.90;;;;;;5021605;28;20040;-80
2022/11/21 01:41:23;;;;;;;25.80;14.77;;;4.90;99.90;;;;;;5021125;28;20474;-78
2022/11/21 01:43:52;;;;;;;27.02;13.90;;;4.90;99.90;;;;;;5023178;28;20037;-75
2022/11/21 01:46:19;;;;;;;25.33;14.75;;;4.80;99.90;;;;;;5019864;28;20022;-78
2022/11/21 01:48:59;;;;;;;28.00;15.95;;;4.80;99.90;;;;;;5022327;28;20056;-78
2022/11/21 01:51:36;;;;;;;28.05;14.30;;;4.80;99.90;;;;;;5022896;28;20022;-75
2022/11/21 01:54:15;;;;;;;28.73;15.55;;;4.80;99.90;;;;;;5020811;28;20022;-77
2022/11/21 01:57:00;;;;;;;23.42;14.35;;;4.80;99.90;;;;;;5027038;28;20033;-78
2022/11/21 01:59:35;;;;;;;29.45;15.48;;;4.80;99.90;;;;;;5022904;28;20127;-77
2022/11/21 02:02:03;;;;;;;30.48;15.93;;;4.80;99.90;;;;;;5028019;28;20573;-78
2022/11/21 02:04:31;;;;;;;28.88;15.82;;;4.80;99.90;;;;;;5024695;28;20041;-75
2022/11/21 02:07:02;;;;;;;26.88;14.50;;;4.80;99.90;;;;;;5031807;28;20026;-78
2022/11/21 02:09:30;;;;;;;28.83;15.43;;;4.80;99.90;;;;;;5025841;28;20032;-77
2022/11/21 02:12:09;;;;;;;31.05;15.85;;;4.80;99.90;;;;;;5026232;28;20026;-78
2022/11/21 02:14:37;;;;;;;29.35;15.25;;;4.80;99.90;;;;;;5037269;28;20026;-76
2022/11/21 02:17:06;;;;;;;26.80;14.43;;;4.70;99.90;;;;;;5039832;28;20024;-78
2022/11/21 02:19:40;;;;;;;32.25;15.45;;;4.70;99.90;;;;;;5021619;28;20351;-78
2022/11/21 02:22:31;;;;;;;29.30;15.70;;;4.70;99.90;;;;;;5026519;28;20332;-78
2022/11/21 02:25:05;;;;;;;29.83;15.13;;;4.80;99.90;;;;;;4997197;28;20141;-76
2022/11/21 02:27:31;;;;;;;25.80;15.15;;;4.70;99.90;;;;;;5023827;28;20391;-78
2022/11/21 02:30:00;;;;;;;27.63;15.55;;;4.80;99.90;;;;;;5043267;28;20025;-77
2022/11/21 02:32:36;;;;;;;30.17;15.35;;;4.80;99.90;;;;;;5024096;28;20044;-77
2022/11/21 02:35:02;;;;;;;30.23;15.52;;;4.80;99.90;;;;;;5019808;28;20021;-77
2022/11/21 02:37:29;;;;;;;30.23;15.40;;;4.80;99.90;;;;;;5023250;28;20113;-78
2022/11/21 02:39:57;;;;;;;29.27;15.50;;;4.80;99.90;;;;;;5037684;28;20083;-78
2022/11/21 02:42:38;;;;;;;27.75;15.20;;;4.80;99.90;;;;;;5024084;28;20408;-78
2022/11/21 02:45:17;;;;;;;27.65;15.43;;;4.80;99.90;;;;;;5024477;28;20109;-75
2022/11/21 02:47:44;;;;;;;32.75;15.90;;;4.80;99.90;;;;;;5024328;28;20021;-78
2022/11/21 02:50:14;;;;;;;30.33;15.40;;;4.80;99.90;;;;;;5022333;28;20474;-76
2022/11/21 02:52:40;;;;;;;28.02;15.77;;;4.80;99.90;;;;;;5025025;28;20078;-78
2022/11/21 02:55:07;;;;;;;28.52;15.45;;;4.80;99.90;;;;;;5019447;28;20025;-77
2022/11/21 02:57:35;;;;;;;28.67;15.27;;;4.90;99.90;;;;;;5025105;28;20025;-78
2022/11/21 03:00:01;;;;;;;29.25;15.85;;;4.90;99.90;;;;;;5019369;28;20596;-76
2022/11/21 03:02:26;;;;;;;31.33;16.38;;;4.90;99.90;;;;;;5023826;28;20030;-77
2022/11/21 03:04:52;;;;;;;28.10;15.10;;;4.90;99.90;;;;;;5025358;28;20075;-78
2022/11/21 03:07:17;;;;;;;28.38;15.63;;;4.90;99.90;;;;;;5030153;28;20025;-77
2022/11/21 03:09:43;;;;;;;31.52;15.90;;;4.90;99.90;;;;;;5025702;28;20036;-78
2022/11/21 03:12:09;;;;;;;30.88;15.32;;;4.90;99.90;;;;;;5024118;28;20036;-79
2022/11/21 03:14:38;;;;;;;32.58;16.50;;;4.90;99.90;;;;;;5024484;28;20022;-79
2022/11/21 03:17:04;;;;;;;31.48;16.95;;;4.80;99.90;;;;;;5024772;28;20026;-79
2022/11/21 03:19:29;;;;;;;30.80;16.35;;;4.80;99.90;;;;;;5022541;28;20029;-78
2022/11/21 03:21:55;;;;;;;28.60;15.38;;;4.80;99.90;;;;;;5020653;28;20026;-79
2022/11/21 03:24:21;;;;;;;33.72;16.02;;;4.90;99.90;;;;;;5023548;28;20450;-79
2022/11/21 03:26:49;;;;;;;32.33;17.27;;;4.80;99.90;;;;;;5023277;28;20133;-79
2022/11/21 03:29:14;;;;;;;29.38;15.63;;;4.80;99.90;;;;;;5021585;28;20039;-77
2022/11/21 03:31:40;;;;;;;30.17;16.83;;;4.80;99.90;;;;;;5021739;28;20022;-79
2022/11/21 03:34:06;;;;;;;31.05;16.77;;;4.90;99.90;;;;;;5022047;28;20467;-77
2022/11/21 03:36:31;;;;;;;36.25;17.27;;;4.80;99.90;;;;;;5021124;28;20040;-77
2022/11/21 03:39:02;;;;;;;31.63;16.10;;;4.80;99.90;;;;;;5021694;28;20117;-78
2022/11/21 03:41:28;;;;;;;28.75;15.98;;;4.80;99.90;;;;;;5020252;28;20422;-79
2022/11/21 03:43:57;;;;;;;30.67;16.65;;;4.80;99.90;;;;;;5023802;28;20025;-77
2022/11/21 03:46:23;;;;;;;31.75;16.73;;;4.80;99.90;;;;;;5023454;28;20092;-78
2022/11/21 03:48:49;;;;;;;31.30;15.95;;;4.70;99.90;;;;;;5023418;28;20025;-77
2022/11/21 03:51:14;;;;;;;33.22;16.45;;;4.70;99.90;;;;;;5020311;28;20518;-76
2022/11/21 03:53:40;;;;;;;34.25;17.65;;;4.60;99.90;;;;;;5022565;28;20049;-78
2022/11/21 03:56:06;;;;;;;34.70;16.88;;;4.50;99.90;;;;;;5019593;28;20033;-77
2022/11/21 03:58:34;;;;;;;34.40;17.10;;;4.50;99.90;;;;;;5025527;28;20379;-79
2022/11/21 04:00:59;;;;;;;37.60;17.02;;;4.60;99.90;;;;;;5019229;28;20057;-73
2022/11/21 04:03:25;;;;;;;36.08;17.30;;;4.60;99.90;;;;;;5019623;28;20065;-77
2022/11/21 04:05:53;;;;;;;38.80;18.45;;;4.60;99.90;;;;;;5020752;28;20041;-78
2022/11/21 04:08:18;;;;;;;36.33;18.08;;;4.70;99.90;;;;;;5023035;28;20024;-77
2022/11/21 04:10:51;;;;;;;36.90;19.33;;;4.70;99.90;;;;;;5018892;28;20040;-79
2022/11/21 04:13:18;;;;;;;36.95;18.80;;;4.70;99.90;;;;;;5025495;28;20440;-76
2022/11/21 04:15:44;;;;;;;33.72;17.48;;;4.60;99.90;;;;;;5020778;28;20021;-78
2022/11/21 04:18:11;;;;;;;35.17;17.58;;;4.60;99.90;;;;;;5020341;28;20076;-77
2022/11/21 04:20:39;;;;;;;34.53;18.02;;;4.60;99.90;;;;;;5018076;28;20030;-78
2022/11/21 04:23:05;;;;;;;36.40;17.20;;;4.60;99.90;;;;;;5017992;28;20104;-77
2022/11/21 04:25:36;;;;;;;35.50;18.85;;;4.60;99.90;;;;;;5021628;28;20120;-77
2022/11/21 04:28:02;;;;;;;35.42;17.67;;;4.60;99.90;;;;;;5019359;28;20065;-77
2022/11/21 04:30:29;;;;;;;40.42;19.45;;;4.50;99.90;;;;;;5020675;28;20026;-77
2022/11/21 04:32:55;;;;;;;35.25;18.02;;;4.50;99.90;;;;;;5020208;28;20532;-76
2022/11/21 04:35:23;;;;;;;38.58;19.20;;;4.50;99.90;;;;;;5021462;28;20033;-76
2022/11/21 04:37:49;;;;;;;41.03;19.30;;;4.50;99.90;;;;;;5022767;28;20107;-77
2022/11/21 04:40:18;;;;;;;38.50;18.92;;;4.50;99.90;;;;;;5023090;28;20036;-77
2022/11/21 04:42:45;;;;;;;39.65;18.05;;;4.50;99.90;;;;;;5020809;28;20041;-75
2022/11/21 04:45:14;;;;;;;41.30;19.55;;;4.60;99.90;;;;;;5021253;28;20037;-76
2022/11/21 04:47:42;;;;;;;36.60;19.35;;;4.60;99.90;;;;;;5022798;28;20481;-77
2022/11/21 04:50:10;;;;;;;38.90;19.17;;;4.60;99.90;;;;;;5019211;28;20022;-77
2022/11/21 04:52:36;;;;;;;41.22;20.08;;;4.60;99.90;;;;;;5012574;28;20064;-77
2022/11/21 04:55:05;;;;;;;35.97;19.02;;;4.60;99.90;;;;;;5017275;28;20057;-77
2022/11/21 04:57:32;;;;;;;39.13;19.40;;;4.70;99.90;;;;;;5018052;28;20053;-77
2022/11/21 04:59:57;;;;;;;37.85;18.95;;;4.70;99.90;;;;;;5021561;28;20026;-77
2022/11/21 05:02:23;;;;;;;36.47;19.02;;;4.70;99.90;;;;;;5021559;28;20031;-75
2022/11/21 05:04:49;;;;;;;40.10;18.08;;;4.70;99.90;;;;;;5021955;28;20033;-76
2022/11/21 05:07:18;;;;;;;36.22;18.33;;;4.80;99.90;;;;;;5023260;28;20025;-77
2022/11/21 05:09:46;;;;;;;41.38;19.25;;;4.80;99.90;;;;;;5018291;28;20036;-78
2022/11/21 05:14:56;;;;;;;38.47;18.40;;;4.70;99.90;;;;;;5023154;28;20071;-77
2022/11/21 05:17:22;;;;;;;36.50;18.23;;;4.80;99.90;;;;;;5021420;28;20026;-77
2022/11/21 05:19:47;;;;;;;44.28;19.58;;;4.70;99.90;;;;;;5021434;28;20025;-78
2022/11/21 05:22:15;;;;;;;41.28;19.92;;;4.70;99.90;;;;;;5023529;28;20047;-77
2022/11/21 05:24:41;;;;;;;37.17;18.92;;;4.70;99.90;;;;;;5037861;28;20088;-77
2022/11/21 05:27:06;;;;;;;38.03;19.75;;;4.80;99.90;;;;;;5024949;28;20025;-77
2022/11/21 05:29:35;;;;;;;44.38;19.38;;;4.80;99.90;;;;;;5020448;28;20347;-76
2022/11/21 05:32:00;;;;;;;41.25;19.55;;;4.80;99.90;;;;;;5019522;28;20041;-77
2022/11/21 05:34:28;;;;;;;42.70;19.02;;;4.80;99.90;;;;;;5020225;28;20111;-73
2022/11/21 05:36:57;;;;;;;40.10;20.23;;;4.80;99.90;;;;;;5022043;28;20443;-77
2022/11/21 05:39:24;;;;;;;42.53;20.85;;;4.80;99.90;;;;;;5021532;28;20333;-77
2022/11/21 05:41:50;;;;;;;41.30;20.33;;;4.80;99.90;;;;;;5025011;28;20092;-75
2022/11/21 05:44:16;;;;;;;43.88;20.58;;;4.80;99.90;;;;;;5027341;28;20040;-76
2022/11/21 05:46:42;;;;;;;41.50;21.35;;;4.80;99.90;;;;;;5021348;28;20379;-77
2022/11/21 05:49:10;;;;;;;43.65;20.58;;;4.70;99.90;;;;;;5024231;28;20351;-77
2022/11/21 05:51:35;;;;;;;49.38;22.02;;;4.70;99.90;;;;;;5023983;28;20013;-77
2022/11/21 05:54:01;;;;;;;44.17;20.75;;;4.70;99.90;;;;;;5022517;28;20311;-75
2022/11/21 05:56:27;;;;;;;46.30;22.10;;;4.70;99.90;;;;;;5021589;28;20112;-77
2022/11/21 05:58:57;;;;;;;47.00;20.20;;;4.70;99.90;;;;;;5021432;28;20029;-77
2022/11/21 06:04:09;;;;;;;46.13;22.05;;;4.60;99.90;;;;;;5026291;28;20032;-76
2022/11/21 06:06:35;;;;;;;49.17;21.92;;;4.60;99.90;;;;;;5027153;28;20036;-77
2022/11/21 06:09:01;;;;;;;47.30;20.77;;;4.50;99.90;;;;;;5021843;28;20018;-77
2022/11/21 06:11:27;;;;;;;49.83;22.25;;;4.50;99.90;;;;;;5023410;28;20083;-77
2022/11/21 06:13:53;;;;;;;56.83;22.70;;;4.40;99.90;;;;;;5024121;28;20044;-77
2022/11/21 06:16:22;;;;;;;55.30;22.55;;;4.40;99.90;;;;;;5023630;28;20050;-77
2022/11/21 06:18:52;;;;;;;45.58;20.90;;;4.50;99.90;;;;;;5020429;28;20018;-77
2022/11/21 06:21:22;;;;;;;56.63;23.00;;;4.40;99.90;;;;;;5020795;28;20025;-73
2022/11/21 06:23:56;;;;;;;50.75;21.33;;;4.40;99.90;;;;;;5025688;28;20044;-77
2022/11/21 06:26:24;;;;;;;52.17;22.30;;;4.50;99.90;;;;;;5023967;28;20121;-77
2022/11/21 06:28:53;;;;;;;50.67;22.23;;;4.40;99.90;;;;;;5022403;28;20711;-76
2022/11/21 06:31:22;;;;;;;52.85;23.00;;;4.50;99.90;;;;;;5021867;28;20049;-76
2022/11/21 06:33:54;;;;;;;64.63;23.15;;;4.50;99.90;;;;;;5038747;28;20068;-76
2022/11/21 06:36:20;;;;;;;58.38;25.35;;;4.50;99.90;;;;;;5020595;28;20100;-75
2022/11/21 06:38:46;;;;;;;60.65;24.35;;;4.60;99.90;;;;;;5031676;28;20137;-76
2022/11/21 06:41:17;;;;;;;70.47;26.67;;;4.50;99.90;;;;;;5022671;28;20064;-76
2022/11/21 06:43:44;;;;;;;76.07;26.88;;;4.60;99.90;;;;;;5022878;28;20022;-76
2022/11/21 06:46:13;;;;;;;67.55;25.92;;;4.60;99.90;;;;;;5026558;28;20022;-76
2022/11/21 06:48:39;;;;;;;70.28;25.92;;;4.60;99.90;;;;;;5025707;28;20447;-77
2022/11/21 06:51:07;;;;;;;72.13;25.52;;;4.70;99.90;;;;;;5020097;28;20083;-77
2022/11/21 06:53:33;;;;;;;82.07;25.75;;;4.70;99.90;;;;;;5023875;28;20040;-77
2022/11/21 06:56:00;;;;;;;82.40;25.58;;;4.70;99.90;;;;;;5024232;28;20410;-77
2022/11/21 06:58:27;;;;;;;76.40;24.73;;;4.70;99.90;;;;;;5023652;28;20791;-77
2022/11/21 07:00:53;;;;;;;68.50;24.73;;;4.70;99.90;;;;;;5023436;28;20029;-76
2022/11/21 07:03:21;;;;;;;73.35;26.20;;;4.70;99.90;;;;;;5020960;28;20030;-76
2022/11/21 07:05:52;;;;;;;63.05;24.95;;;4.70;99.90;;;;;;5022319;28;20029;-77
2022/11/21 07:08:18;;;;;;;62.33;25.45;;;4.70;99.90;;;;;;5023859;28;20343;-77
2022/11/21 07:10:43;;;;;;;66.28;25.50;;;4.70;99.90;;;;;;5022653;28;20025;-76
2022/11/21 07:13:21;;;;;;;69.40;26.15;;;4.70;99.90;;;;;;5023093;28;20032;-78
2022/11/21 07:15:54;;;;;;;89.93;27.05;;;4.70;99.90;;;;;;5037596;28;20091;-77
2022/11/21 07:18:21;;;;;;;74.13;25.98;;;4.70;99.90;;;;;;5023183;28;20028;-77
2022/11/21 07:20:47;;;;;;;80.88;26.38;;;4.70;99.90;;;;;;5024148;28;20116;-76
2022/11/21 07:23:13;;;;;;;76.13;26.20;;;4.80;99.90;;;;;;5025041;28;20478;-77
2022/11/21 07:25:39;;;;;;;79.20;25.95;;;4.80;99.90;;;;;;5024576;28;20074;-78
2022/11/21 07:28:06;;;;;;;71.03;25.10;;;4.80;99.90;;;;;;5027198;28;20026;-77
2022/11/21 07:30:33;;;;;;;73.60;26.00;;;4.90;99.90;;;;;;5025309;28;20109;-77
2022/11/21 07:33:02;;;;;;;84.25;25.20;;;4.90;99.90;;;;;;5023863;28;20018;-75
2022/11/21 07:35:30;;;;;;;93.55;25.90;;;4.90;99.90;;;;;;5024865;28;20021;-77
2022/11/21 07:37:56;;;;;;;89.30;25.67;;;4.90;99.90;;;;;;5023406;28;20045;-77
2022/11/21 07:40:22;;;;;;;77.30;23.23;;;4.90;99.90;;;;;;5021273;28;20439;-76
2022/11/21 07:42:47;;;;;;;71.07;24.00;;;5.00;99.90;;;;;;5021699;28;20038;-77
2022/11/21 07:45:16;;;;;;;64.57;24.42;;;5.00;99.90;;;;;;5022493;28;20358;-77
2022/11/21 07:47:45;;;;;;;71.60;24.55;;;5.00;99.90;;;;;;5021244;28;20026;-78
2022/11/21 07:50:11;;;;;;;85.30;25.73;;;5.00;99.90;;;;;;5022473;28;20121;-77
2022/11/21 07:52:37;;;;;;;85.63;25.27;;;5.00;99.90;;;;;;5024764;28;20417;-77
2022/11/21 07:55:06;;;;;;;85.78;25.73;;;5.00;99.90;;;;;;5026061;28;20033;-77
2022/11/21 07:57:35;;;;;;;96.70;25.65;;;4.90;99.90;;;;;;5022679;28;20120;-75
2022/11/21 08:00:00;;;;;;;105.55;26.23;;;4.90;99.90;;;;;;5021703;28;20037;-77
2022/11/21 08:02:27;;;;;;;109.75;25.60;;;4.90;99.90;;;;;;5023507;28;20034;-77
2022/11/21 08:04:53;;;;;;;73.63;24.50;;;5.00;99.90;;;;;;5018541;28;20030;-77
2022/11/21 08:07:21;;;;;;;93.53;25.98;;;5.00;99.90;;;;;;5022569;28;20041;-77
2022/11/21 08:09:51;;;;;;;80.45;25.80;;;5.10;99.90;;;;;;5018525;28;20037;-77
2022/11/21 08:12:17;;;;;;;93.57;26.42;;;5.10;99.90;;;;;;5018835;28;20033;-77
2022/11/21 08:14:43;;;;;;;84.47;23.65;;;5.10;99.90;;;;;;5020412;28;20017;-78
2022/11/21 08:17:11;;;;;;;85.53;23.77;;;5.10;99.90;;;;;;5019575;28;20164;-75
2022/11/21 08:19:36;;;;;;;106.97;23.75;;;5.10;99.90;;;;;;5033533;28;20121;-76
2022/11/21 08:22:02;;;;;;;81.15;25.23;;;5.10;99.90;;;;;;5034476;28;20104;-75
2022/11/21 08:24:28;;;;;;;93.28;23.10;;;5.10;99.90;;;;;;5037017;28;20159;-77
2022/11/21 08:26:55;;;;;;;85.05;25.85;;;5.10;99.90;;;;;;5019545;28;20022;-76
2022/11/21 08:29:21;;;;;;;86.13;24.88;;;5.20;99.90;;;;;;5019749;28;20099;-78
2022/11/21 08:31:49;;;;;;;93.40;24.85;;;5.20;99.90;;;;;;5020832;28;20018;-77
2022/11/21 08:34:19;;;;;;;68.70;24.08;;;5.10;99.90;;;;;;5019967;28;20022;-76
2022/11/21 08:36:47;;;;;;;82.18;24.58;;;5.20;99.90;;;;;;5022395;28;20155;-77
2022/11/21 08:39:15;;;;;;;72.75;23.77;;;5.20;99.90;;;;;;5018219;28;20456;-77
2022/11/21 08:42:01;;;;;;;76.65;24.38;;;5.30;99.90;;;;;;5034337;28;20098;-78
2022/11/21 08:44:31;;;;;;;75.22;25.23;;;5.30;99.90;;;;;;5024509;28;20026;-78
2022/11/21 08:46:57;;;;;;;78.55;23.75;;;5.30;99.90;;;;;;5030203;28;20040;-75
2022/11/21 08:49:23;;;;;;;97.50;25.48;;;5.30;99.90;;;;;;5033031;28;20041;-76
2022/11/21 08:51:52;;;;;;;92.95;24.90;;;5.30;99.90;;;;;;5030214;28;20465;-75
2022/11/21 08:54:21;;;;;;;80.78;24.10;;;5.30;99.90;;;;;;5026177;28;20101;-76
2022/11/21 08:56:50;;;;;;;98.47;26.98;;;5.30;99.90;;;;;;5018971;28;20036;-70
2022/11/21 08:59:18;;;;;;;90.10;25.77;;;5.40;99.90;;;;;;5015967;28;20688;-75
2022/11/21 09:01:44;;;;;;;87.28;25.35;;;5.40;99.90;;;;;;5033909;28;20526;-75
2022/11/21 09:04:10;;;;;;;73.22;22.85;;;5.40;99.90;;;;;;5036681;28;20033;-75
2022/11/21 09:06:38;;;;;;;87.25;25.92;;;5.40;99.90;;;;;;5020505;28;20033;-75
2022/11/21 09:09:05;;;;;;;87.25;23.63;;;5.40;99.90;;;;;;5018331;28;20135;-76
2022/11/21 09:11:31;;;;;;;84.70;24.55;;;5.30;99.90;;;;;;5021812;28;20029;-75
2022/11/21 09:19:27;;;;;;;85.22;23.63;;;5.50;99.90;;;;;;5017509;28;20047;-76
2022/11/21 09:21:55;;;;;;;107.43;26.70;;;5.60;99.90;;;;;;5019801;28;20025;-76
2022/11/21 09:24:21;;;;;;;96.82;25.35;;;5.70;99.90;;;;;;5025683;28;20029;-76
2022/11/21 09:26:49;;;;;;;94.38;24.75;;;5.70;99.90;;;;;;5027986;28;20048;-76
2022/11/21 09:29:15;;;;;;;115.40;28.13;;;5.70;99.90;;;;;;5017750;28;20394;-76
2022/11/21 09:31:41;;;;;;;90.05;24.00;;;5.70;99.90;;;;;;5018859;28;20018;-76
2022/11/21 09:34:07;;;;;;;91.53;25.55;;;5.80;99.90;;;;;;5023617;28;20022;-77
2022/11/21 09:36:33;;;;;;;93.57;25.25;;;5.80;99.90;;;;;;5019802;28;20025;-76
2022/11/21 09:38:59;;;;;;;117.82;27.25;;;5.90;99.90;;;;;;5021986;28;20032;-76
2022/11/21 09:41:52;;;;;;;99.22;27.73;;;5.90;99.90;;;;;;5021905;28;20048;-77
2022/11/21 09:44:39;;;;;;;94.95;26.35;;;5.90;99.90;;;;;;5022474;28;20084;-76
2022/11/21 09:47:28;;;;;;;94.43;25.88;;;5.90;99.90;;;;;;5039538;28;20030;-73
2022/11/21 09:50:02;;;;;;;98.60;27.40;;;5.90;99.90;;;;;;5021066;28;20024;-71
2022/11/21 09:52:36;;;;;;;110.30;29.20;;;5.90;99.90;;;;;;5034288;28;20021;-71
2022/11/21 09:55:24;;;;;;;105.57;27.52;;;5.90;99.90;;;;;;5035524;28;20328;-72
2022/11/21 09:57:50;;;;;;;119.20;29.48;;;5.90;99.90;;;;;;5022319;28;20369;-73
2022/11/21 10:00:26;;;;;;;102.15;29.10;;;5.90;99.90;;;;;;5021141;28;20040;-73
2022/11/21 10:02:51;;;;;;;122.45;29.25;;;6.00;99.90;;;;;;5018038;28;20048;-72
2022/11/21 10:05:41;;;;;;;100.90;28.73;;;5.90;99.90;;;;;;5019777;28;20033;-72
2022/11/21 10:08:42;;;;;;;91.32;29.38;;;6.00;99.90;;;;;;5019424;28;20028;-72
2022/11/21 10:11:13;;;;;;;103.40;28.60;;;6.00;99.90;;;;;;5021556;28;20032;-71
2022/11/21 10:14:15;;;;;;;126.40;29.15;;;6.10;99.90;;;;;;5020311;28;20025;-71
2022/11/21 10:17:17;;;;;;;114.10;28.95;;;6.30;99.90;;;;;;5021879;28;20064;-71
2022/11/21 10:20:00;;;;;;;115.55;31.30;;;6.40;99.90;;;;;;5017602;28;20116;-74
2022/11/21 10:22:58;;;;;;;109.82;31.75;;;6.50;99.90;;;;;;5019868;28;20104;-71
2022/11/21 10:25:32;;;;;;;133.60;29.73;;;6.40;99.90;;;;;;5038173;28;20155;-72
2022/11/21 10:28:03;;;;;;;107.32;28.67;;;6.40;99.90;;;;;;5018757;28;20018;-71
2022/11/21 10:30:31;;;;;;;104.57;28.53;;;6.50;99.90;;;;;;5027061;28;20056;-72
2022/11/21 10:33:10;;;;;;;93.97;27.95;;;6.60;99.90;;;;;;5026940;28;20090;-76
2022/11/21 10:36:00;;;;;;;97.90;28.95;;;6.70;99.90;;;;;;5027522;28;20026;-74
2022/11/21 10:38:28;;;;;;;94.22;28.38;;;6.80;99.90;;;;;;5024124;28;20087;-76
2022/11/21 10:41:17;;;;;;;91.93;28.92;;;6.90;99.90;;;;;;5020858;28;20112;-75
2022/11/21 10:47:30;;;;;;;107.07;27.60;;;7.00;99.90;;;;;;5023007;28;20091;-78
2022/11/21 10:50:08;;;;;;;97.22;28.25;;;7.10;99.90;;;;;;5044764;28;20053;-73
2022/11/21 10:54:31;;;;;;;94.97;28.10;;;7.10;99.90;;;;;;5040146;28;20045;-72
2022/11/21 10:56:11;;;;;;;113.38;29.85;;;7.30;99.90;;;;;;5024619;28;20180;-74
2022/11/21 10:58:54;;;;;;;89.80;28.70;;;7.40;99.90;;;;;;5032620;28;20041;-73
2022/11/21 11:01:27;;;;;;;;;;;7.60;99.90;;;;;;5031377;28;20888;-75
2022/11/21 11:04:12;;;;;;;86.72;28.80;;;7.90;99.90;;;;;;5024499;28;19966;-74
2022/11/21 11:06:41;;;;;;;88.35;27.90;;;8.00;99.90;;;;;;5025524;28;20018;-77
2022/11/21 11:09:21;;;;;;;85.68;28.75;;;8.20;99.90;;;;;;5027983;28;20026;-74
2022/11/21 11:11:47;;;;;;;91.15;28.30;;;8.20;99.90;;;;;;5025595;28;20096;-75
2022/11/21 11:14:31;;;;;;;80.88;27.75;;;8.20;99.90;;;;;;5029166;28;20136;-76
2022/11/21 11:17:00;;;;;;;74.85;27.20;;;8.10;99.90;;;;;;5027778;28;20068;-73
2022/11/21 11:19:29;;;;;;;75.35;27.70;;;8.20;99.90;;;;;;5029664;28;20049;-75
2022/11/21 11:21:55;;;;;;;68.20;25.80;;;8.20;99.90;;;;;;5028555;28;20471;-72
2022/11/21 11:24:25;;;;;;;63.42;24.58;;;8.20;99.90;;;;;;5021515;28;20034;-67
2022/11/21 11:26:58;;;;;;;68.60;25.02;;;8.20;99.90;;;;;;5024426;28;20404;-72
2022/11/21 11:29:26;;;;;;;60.80;22.17;;;8.20;99.90;;;;;;5022359;28;20026;-72
2022/11/21 11:31:59;;;;;;;57.85;22.90;;;8.30;99.90;;;;;;5027142;28;20017;-74
2022/11/21 11:34:40;;;;;;;63.25;21.13;;;8.20;99.90;;;;;;5019660;28;20025;-73
2022/11/21 11:37:16;;;;;;;50.08;19.27;;;8.50;99.90;;;;;;5022389;28;20025;-75
2022/11/21 11:40:03;;;;;;;44.45;18.02;;;8.70;99.90;;;;;;5020867;28;20026;-73
2022/11/21 11:48:38;;;;;;;35.15;15.57;;;10.20;99.90;;;;;;5021847;28;20063;-73
2022/11/21 11:51:45;;;;;;;30.27;14.52;;;10.80;99.90;;;;;;5036301;28;20049;-72
2022/11/21 11:54:20;;;;;;;33.20;14.90;;;11.30;99.90;;;;;;5037777;28;20458;-72
2022/11/21 11:56:46;;;;;;;34.25;15.85;;;11.30;99.90;;;;;;5022456;28;20025;-72
2022/11/21 11:59:30;;;;;;;26.88;13.65;;;11.20;99.90;;;;;;5022261;28;20037;-72
2022/11/21 12:02:22;;;;;;;28.10;14.30;;;11.10;99.90;;;;;;5021372;28;20386;-71
2022/11/21 12:05:08;;;;;;;28.73;14.10;;;11.20;99.90;;;;;;5022815;28;20030;-75
2022/11/21 12:07:43;;;;;;;29.55;13.75;;;11.40;99.90;;;;;;5018499;28;20033;-73
2022/11/21 12:10:27;;;;;;;31.92;13.80;;;11.60;99.90;;;;;;5018524;28;20021;-72
2022/11/21 12:13:12;;;;;;;31.15;13.88;;;11.80;99.90;;;;;;5024842;28;20030;-70
2022/11/21 12:15:48;;;;;;;31.60;13.38;;;12.50;99.90;;;;;;5044505;28;20758;-75
2022/11/21 12:18:14;;;;;;;23.70;11.57;;;12.90;99.90;;;;;;5025965;28;20037;-73
2022/11/21 12:21:04;;;;;;;27.50;12.35;;;13.00;99.90;;;;;;5020818;28;20034;-73
2022/11/21 12:23:36;;;;;;;23.23;11.10;;;12.30;99.90;;;;;;5021139;28;20528;-74
2022/11/21 12:26:29;;;;;;;17.85;9.05;;;12.00;99.90;;;;;;5019293;28;20470;-72
2022/11/21 12:29:17;;;;;;;15.52;8.20;;;12.10;99.90;;;;;;5023108;28;20039;-73
2022/11/21 12:31:48;;;;;;;15.77;6.55;;;12.40;99.90;;;;;;5024190;28;20324;-72
2022/11/21 12:34:42;;;;;;;13.52;6.00;;;12.50;99.90;;;;;;5024955;28;20025;-73
2022/11/21 12:37:22;;;;;;;11.35;5.47;;;11.60;99.90;;;;;;5022251;28;20021;-74
2022/11/21 12:40:11;;;;;;;13.20;7.18;;;11.10;99.90;;;;;;5021262;28;20500;-73
2022/11/21 12:42:49;;;;;;;9.93;5.80;;;10.90;99.90;;;;;;5022205;28;20120;-74
2022/11/21 12:45:26;;;;;;;15.43;5.80;;;11.30;99.90;;;;;;5018101;28;20030;-75
2022/11/21 12:54:32;;;;;;;24.02;10.68;;;12.00;99.90;;;;;;5019588;28;20033;-72
2022/11/21 12:57:09;;;;;;;;;;;12.20;99.90;;;;;;5021644;28;20029;-73
2022/11/21 12:59:51;;;;;;;31.00;16.98;;;12.20;99.90;;;;;;5019872;28;19964;-73
2022/11/21 13:02:28;;;;;;;41.58;20.77;;;12.40;99.90;;;;;;5020929;28;20250;-72
2022/11/21 13:04:56;;;;;;;45.78;23.88;;;12.70;99.90;;;;;;5037176;28;20029;-72
2022/11/21 13:07:24;;;;;;;52.25;27.05;;;12.70;99.90;;;;;;5019185;28;20026;-73
2022/11/21 13:09:53;;;;;;;43.20;21.63;;;12.70;99.90;;;;;;5017272;28;20025;-73
2022/11/21 13:12:42;;;;;;;40.90;22.35;;;12.00;99.90;;;;;;5033615;28;20038;-73
2022/11/21 13:15:33;;;;;;;43.28;21.40;;;11.80;99.90;;;;;;5021265;28;20338;-73
2022/11/21 13:18:16;;;;;;;38.90;20.70;;;11.50;99.90;;;;;;5034076;28;20044;-72
2022/11/21 13:20:47;;;;;;;38.90;21.13;;;11.00;99.90;;;;;;5016667;28;20036;-73